Time;durP1;ratioP1;P1;durP2;ratioP2;P2;SDS_P1;SDS_P2;PMS_P1;PMS_P2;Temp;Humidity;BMP_temperature;BMP_pressure;BME280_temperature;BME280_humidity;BME280_pressure;Samples;Min_cycle;Max_cycle;Signal;HPM_P1;HPM_P2
2022/01/16 00:00:40;;;;;;;50.58;21.13;;;;;;;;;;5096462;28;20195;-65
2022/01/16 00:05:54;;;;;;;148.82;27.27;;;;;;;;;;5096517;28;20174;-65
2022/01/16 00:08:20;;;;;;;75.95;21.13;;;;;;;;;;5096468;28;20168;-65
2022/01/16 00:10:46;;;;;;;85.82;24.33;;;;;;;;;;5096228;28;20182;-66
2022/01/16 00:13:12;;;;;;;68.43;22.87;;;;;;;;;;5096377;28;20163;-66
2022/01/16 00:15:39;;;;;;;81.55;21.30;;;;;;;;;;5095975;28;20854;-66
2022/01/16 00:20:31;;;;;;;105.00;24.63;;;;;;;;;;5096136;28;20178;-65
2022/01/16 00:22:58;;;;;;;70.80;24.65;;;;;;;;;;5095991;28;20171;-66
2022/01/16 00:25:24;;;;;;;118.07;26.30;;;;;;;;;;5096231;28;20232;-66
2022/01/16 00:27:50;;;;;;;55.45;21.83;;;;;;;;;;5095964;28;20167;-65
2022/01/16 00:30:17;;;;;;;73.00;22.50;;;;;;;;;;5095804;28;20209;-67
2022/01/16 00:32:43;;;;;;;70.03;23.13;;;;;;;;;;5096127;28;20160;-66
2022/01/16 00:35:09;;;;;;;77.03;22.23;;;;;;;;;;5095842;28;20163;-66
2022/01/16 00:37:35;;;;;;;72.00;23.75;;;;;;;;;;5095658;28;20167;-65
2022/01/16 00:40:01;;;;;;;63.88;23.15;;;;;;;;;;5095919;28;20167;-66
2022/01/16 00:42:27;;;;;;;54.65;21.30;;;;;;;;;;5095115;28;20167;-67
2022/01/16 00:44:53;;;;;;;79.30;25.00;;;;;;;;;;5095628;28;20190;-67
2022/01/16 00:47:19;;;;;;;120.47;24.00;;;;;;;;;;5095483;28;20464;-66
2022/01/16 00:49:45;;;;;;;54.80;22.70;;;;;;;;;;5095644;28;20563;-67
2022/01/16 00:52:11;;;;;;;64.00;22.45;;;;;;;;;;5095432;28;20691;-66
2022/01/16 00:54:37;;;;;;;105.32;26.40;;;;;;;;;;5095583;28;20171;-64
2022/01/16 00:57:04;;;;;;;59.60;23.83;;;;;;;;;;5095347;28;20626;-66
2022/01/16 00:59:30;;;;;;;92.40;24.85;;;;;;;;;;5093953;28;20194;-67
2022/01/16 01:01:56;;;;;;;52.50;22.58;;;;;;;;;;5095131;28;20190;-67
2022/01/16 01:04:22;;;;;;;55.50;23.83;;;;;;;;;;5095151;28;20509;-67
2022/01/16 01:06:50;;;;;;;63.70;23.57;;;;;;;;;;5095185;28;20250;-67
2022/01/16 01:09:16;;;;;;;66.15;24.10;;;;;;;;;;5095204;28;20465;-67
2022/01/16 01:11:45;;;;;;;61.58;22.48;;;;;;;;;;5094970;28;20167;-65
2022/01/16 01:16:52;;;;;;;45.78;21.88;;;;;;;;;;5094970;28;20669;-68
2022/01/16 01:19:19;;;;;;;57.72;21.17;;;;;;;;;;5094848;28;20167;-65
2022/01/16 01:21:45;;;;;;;51.47;22.02;;;;;;;;;;5094851;28;20186;-67
2022/01/16 01:24:11;;;;;;;47.25;21.33;;;;;;;;;;5094740;28;20163;-67
2022/01/16 01:26:46;;;;;;;47.05;22.42;;;;;;;;;;5094820;28;20253;-66
2022/01/16 01:29:17;;;;;;;65.82;22.02;;;;;;;;;;5094754;28;20210;-67
2022/01/16 01:31:43;;;;;;;58.58;22.85;;;;;;;;;;5094658;28;20174;-66
2022/01/16 01:34:09;;;;;;;62.92;23.35;;;;;;;;;;5094680;28;20163;-68
2022/01/16 01:36:35;;;;;;;53.77;22.40;;;;;;;;;;5094529;28;20171;-65
2022/01/16 01:39:01;;;;;;;55.07;23.30;;;;;;;;;;5094691;28;20393;-66
2022/01/16 01:41:29;;;;;;;44.63;21.73;;;;;;;;;;5094729;28;20907;-67
2022/01/16 01:52:08;;;;;;;78.30;26.10;;;;;;;;;;5094348;28;20548;-68
2022/01/16 01:54:34;;;;;;;55.97;24.17;;;;;;;;;;5094248;28;20171;-67
2022/01/16 01:57:01;;;;;;;58.75;25.55;;;;;;;;;;5094279;28;20396;-65
2022/01/16 01:59:27;;;;;;;58.67;25.17;;;;;;;;;;5094229;28;20167;-65
2022/01/16 02:01:53;;;;;;;59.28;24.58;;;;;;;;;;5094057;28;20163;-65
2022/01/16 02:04:19;;;;;;;71.53;27.60;;;;;;;;;;5094148;28;20658;-65
2022/01/16 02:06:45;;;;;;;53.40;24.33;;;;;;;;;;5094037;28;20195;-65
2022/01/16 02:09:11;;;;;;;77.53;26.23;;;;;;;;;;5093932;28;20461;-65
2022/01/16 02:11:37;;;;;;;85.68;26.02;;;;;;;;;;5093978;28;20167;-65
2022/01/16 02:35:40;;;;;;;91.38;28.60;;;;;;;;;;5093682;28;20167;-66
2022/01/16 02:38:08;;;;;;;95.03;29.85;;;;;;;;;;5093649;28;20178;-66
2022/01/16 02:40:37;;;;;;;71.63;28.65;;;;;;;;;;5093852;28;20163;-66
2022/01/16 02:43:04;;;;;;;95.00;29.67;;;;;;;;;;5093714;28;20179;-66
2022/01/16 02:45:32;;;;;;;101.25;30.48;;;;;;;;;;5093746;28;20162;-66
2022/01/16 02:48:03;;;;;;;73.05;29.20;;;;;;;;;;5093636;28;20155;-66
2022/01/16 02:50:29;;;;;;;80.40;28.05;;;;;;;;;;5093429;28;20202;-66
2022/01/16 02:52:55;;;;;;;71.03;29.58;;;;;;;;;;5093479;28;20159;-67
2022/01/16 02:55:22;;;;;;;128.85;32.70;;;;;;;;;;5093379;28;20169;-66
2022/01/16 02:57:49;;;;;;;102.97;28.63;;;;;;;;;;5093391;28;20618;-66
2022/01/16 03:00:16;;;;;;;91.53;29.25;;;;;;;;;;5093306;28;20246;-66
2022/01/16 03:02:42;;;;;;;69.85;29.13;;;;;;;;;;5093538;28;20202;-65
2022/01/16 03:05:08;;;;;;;93.93;31.90;;;;;;;;;;5093616;28;20171;-65
2022/01/16 03:07:34;;;;;;;82.75;31.13;;;;;;;;;;5097688;28;20405;-66
2022/01/16 03:10:28;;;;;;;92.87;29.93;;;;;;;;;;5097297;28;20669;-68
2022/01/16 03:12:54;;;;;;;94.90;32.15;;;;;;;;;;5097336;28;20417;-65
2022/01/16 03:15:21;;;;;;;78.65;32.22;;;;;;;;;;5097483;28;20257;-68
2022/01/16 03:23:10;;;;;;;87.13;32.00;;;;;;;;;;5097419;28;20200;-66
2022/01/16 03:25:36;;;;;;;88.10;32.23;;;;;;;;;;5097114;28;20270;-67
2022/01/16 03:28:02;;;;;;;110.93;33.40;;;;;;;;;;5096986;28;20397;-66
2022/01/16 03:30:28;;;;;;;90.40;32.35;;;;;;;;;;5096889;28;20475;-65
2022/01/16 03:32:54;;;;;;;75.67;34.17;;;;;;;;;;5096807;28;20167;-66
2022/01/16 03:35:20;;;;;;;115.40;33.97;;;;;;;;;;5096912;28;20405;-65
2022/01/16 03:37:46;;;;;;;145.43;36.13;;;;;;;;;;5096853;28;20446;-66
2022/01/16 03:40:12;;;;;;;93.77;36.10;;;;;;;;;;5096837;28;20593;-65
2022/01/16 03:42:39;;;;;;;126.35;38.83;;;;;;;;;;5096786;28;20462;-66
2022/01/16 03:45:06;;;;;;;124.68;37.33;;;;;;;;;;5096677;28;20205;-67
2022/01/16 03:47:32;;;;;;;96.45;35.50;;;;;;;;;;5096694;28;20609;-66
2022/01/16 03:49:58;;;;;;;116.63;38.03;;;;;;;;;;5096617;28;20550;-66
2022/01/16 03:52:24;;;;;;;124.80;35.07;;;;;;;;;;5096622;28;20167;-66
2022/01/16 03:54:50;;;;;;;98.75;36.50;;;;;;;;;;5096574;28;20397;-67
2022/01/16 03:57:16;;;;;;;122.60;37.50;;;;;;;;;;5096547;28;20167;-65
2022/01/16 03:59:42;;;;;;;103.55;35.65;;;;;;;;;;5096482;28;20199;-66
2022/01/16 04:02:08;;;;;;;191.80;38.47;;;;;;;;;;5096498;28;20174;-65
2022/01/16 04:04:34;;;;;;;123.85;39.88;;;;;;;;;;5096357;28;20401;-67
2022/01/16 04:07:01;;;;;;;128.40;37.47;;;;;;;;;;5096312;28;20167;-64
2022/01/16 04:09:27;;;;;;;91.93;37.17;;;;;;;;;;5096488;28;20496;-65
2022/01/16 04:11:56;;;;;;;86.15;37.10;;;;;;;;;;5096266;28;20177;-68
2022/01/16 04:15:31;;;;;;;86.05;37.17;;;;;;;;;;5096276;28;20192;-65
2022/01/16 04:17:10;;;;;;;81.13;34.42;;;;;;;;;;5094511;28;20222;-65
2022/01/16 04:19:36;;;;;;;96.55;32.17;;;;;;;;;;5096122;28;20167;-66
2022/01/16 04:22:02;;;;;;;83.37;33.83;;;;;;;;;;5096010;28;20182;-66
2022/01/16 04:24:28;;;;;;;85.15;32.33;;;;;;;;;;5096051;28;20441;-66
2022/01/16 04:26:54;;;;;;;81.90;33.13;;;;;;;;;;5095941;28;20183;-67
2022/01/16 04:29:20;;;;;;;85.90;32.20;;;;;;;;;;5095775;28;20857;-68
2022/01/16 04:31:46;;;;;;;74.43;33.33;;;;;;;;;;5095760;28;20402;-67
2022/01/16 04:34:12;;;;;;;71.53;33.50;;;;;;;;;;5095743;28;20421;-67
2022/01/16 04:36:38;;;;;;;84.88;33.22;;;;;;;;;;5095742;28;20461;-65
2022/01/16 04:39:12;;;;;;;72.47;30.80;;;;;;;;;;5095968;28;20687;-67
2022/01/16 04:44:22;;;;;;;86.90;35.83;;;;;;;;;;5095584;28;20240;-67
2022/01/16 04:46:48;;;;;;;89.25;33.60;;;;;;;;;;5095624;28;20167;-65
2022/01/16 04:49:14;;;;;;;78.77;33.70;;;;;;;;;;5094135;28;20219;-66
2022/01/16 04:51:40;;;;;;;68.13;31.97;;;;;;;;;;5095363;28;20425;-66
2022/01/16 04:54:06;;;;;;;76.55;33.92;;;;;;;;;;5095368;28;20425;-66
2022/01/16 04:56:32;;;;;;;61.45;27.95;;;;;;;;;;5095333;28;20253;-65
2022/01/16 04:58:58;;;;;;;72.40;30.00;;;;;;;;;;5095333;28;20163;-67
2022/01/16 05:01:24;;;;;;;74.50;30.80;;;;;;;;;;5095208;28;20393;-66
2022/01/16 05:03:50;;;;;;;63.60;30.52;;;;;;;;;;5095435;28;20397;-67
2022/01/16 05:06:16;;;;;;;67.10;30.00;;;;;;;;;;5095117;28;20619;-65
2022/01/16 05:08:42;;;;;;;69.75;28.88;;;;;;;;;;5095347;28;20255;-65
2022/01/16 05:11:11;;;;;;;74.00;29.90;;;;;;;;;;5095092;28;20622;-65
2022/01/16 05:18:48;;;;;;;72.05;30.00;;;;;;;;;;5095170;28;20198;-67
2022/01/16 05:21:14;;;;;;;64.00;28.98;;;;;;;;;;5094845;28;20635;-65
2022/01/16 05:23:43;;;;;;;83.30;30.77;;;;;;;;;;5094806;28;20167;-66
2022/01/16 05:26:10;;;;;;;72.95;31.55;;;;;;;;;;5094680;28;20637;-67
2022/01/16 05:28:36;;;;;;;65.70;29.90;;;;;;;;;;5094278;28;20203;-66
2022/01/16 05:31:02;;;;;;;69.80;30.50;;;;;;;;;;5094834;28;20176;-66
2022/01/16 05:33:28;;;;;;;77.10;30.20;;;;;;;;;;5094612;28;20517;-66
2022/01/16 05:35:54;;;;;;;71.30;29.80;;;;;;;;;;5094559;28;20538;-65
2022/01/16 05:38:20;;;;;;;68.63;28.42;;;;;;;;;;5094593;28;20156;-67
2022/01/16 05:40:46;;;;;;;73.68;28.75;;;;;;;;;;5094605;28;20210;-66
2022/01/16 05:43:12;;;;;;;65.13;27.75;;;;;;;;;;5094546;28;20171;-64
2022/01/16 05:45:38;;;;;;;80.87;30.47;;;;;;;;;;5094507;28;20168;-67
2022/01/16 05:48:04;;;;;;;62.10;27.63;;;;;;;;;;5094366;28;20390;-66
2022/01/16 05:50:33;;;;;;;63.72;27.42;;;;;;;;;;5094355;28;20199;-65
2022/01/16 05:53:00;;;;;;;70.45;28.90;;;;;;;;;;5094315;28;20160;-65
2022/01/16 05:55:29;;;;;;;72.53;30.98;;;;;;;;;;5094237;28;20701;-67
2022/01/16 05:57:55;;;;;;;72.85;28.50;;;;;;;;;;5094203;28;20163;-65
2022/01/16 06:00:21;;;;;;;75.03;29.65;;;;;;;;;;5094243;28;20167;-67
2022/01/16 06:02:47;;;;;;;83.38;31.17;;;;;;;;;;5094442;28;20206;-67
2022/01/16 06:05:13;;;;;;;70.97;32.20;;;;;;;;;;5094115;28;20212;-65
2022/01/16 06:07:44;;;;;;;124.25;33.08;;;;;;;;;;5094287;28;20832;-68
2022/01/16 06:10:11;;;;;;;180.25;37.15;;;;;;;;;;5093952;28;20199;-66
2022/01/16 06:12:36;;;;;;;141.90;36.45;;;;;;;;;;5093905;28;20175;-68
2022/01/16 06:15:04;;;;;;;134.70;36.57;;;;;;;;;;5093847;28;20217;-67
2022/01/16 06:17:31;;;;;;;128.75;33.63;;;;;;;;;;5092412;28;20465;-68
2022/01/16 06:19:57;;;;;;;101.65;34.30;;;;;;;;;;5093766;28;20175;-66
2022/01/16 06:22:23;;;;;;;82.45;32.38;;;;;;;;;;5093798;28;20250;-66
2022/01/16 06:24:48;;;;;;;85.63;33.00;;;;;;;;;;5092475;28;20616;-65
2022/01/16 06:27:14;;;;;;;93.50;33.93;;;;;;;;;;5093710;28;20246;-67
2022/01/16 06:29:40;;;;;;;69.65;33.75;;;;;;;;;;5093628;28;20824;-67
2022/01/16 06:32:06;;;;;;;83.38;33.00;;;;;;;;;;5093622;28;20160;-68
2022/01/16 06:34:32;;;;;;;83.10;34.45;;;;;;;;;;5093558;28;20168;-65
2022/01/16 06:36:58;;;;;;;82.22;32.13;;;;;;;;;;5093520;28;20170;-67
2022/01/16 06:39:24;;;;;;;76.10;33.60;;;;;;;;;;5093370;28;20171;-68
2022/01/16 06:41:51;;;;;;;71.38;32.72;;;;;;;;;;5093015;28;20398;-68
2022/01/16 06:44:17;;;;;;;87.00;31.30;;;;;;;;;;5093534;28;20164;-67
2022/01/16 06:46:43;;;;;;;120.57;34.97;;;;;;;;;;5093463;28;20173;-67
2022/01/16 06:49:10;;;;;;;79.53;33.97;;;;;;;;;;5093459;28;20211;-67
2022/01/16 06:51:36;;;;;;;67.05;32.47;;;;;;;;;;5093618;28;20856;-67
2022/01/16 06:54:03;;;;;;;73.63;31.70;;;;;;;;;;5093522;28;20171;-67
2022/01/16 06:56:30;;;;;;;78.10;33.10;;;;;;;;;;5093700;28;20169;-68
2022/01/16 06:58:56;;;;;;;71.47;32.22;;;;;;;;;;5093750;28;20174;-66
2022/01/16 07:01:22;;;;;;;70.55;32.22;;;;;;;;;;5093470;28;20155;-67
2022/01/16 07:03:51;;;;;;;72.75;32.72;;;;;;;;;;5093433;28;20175;-67
2022/01/16 07:06:17;;;;;;;80.68;33.38;;;;;;;;;;5093396;28;20163;-65
2022/01/16 07:08:43;;;;;;;79.13;32.63;;;;;;;;;;5093301;28;20194;-66
2022/01/16 07:11:09;;;;;;;65.95;31.90;;;;;;;;;;5093440;28;20401;-66
2022/01/16 07:13:35;;;;;;;64.22;30.35;;;;;;;;;;5093226;28;20622;-66
2022/01/16 07:16:02;;;;;;;65.93;31.25;;;;;;;;;;5092998;28;20186;-67
2022/01/16 07:18:28;;;;;;;78.93;31.75;;;;;;;;;;5092946;28;20226;-66
2022/01/16 07:20:54;;;;;;;81.05;31.70;;;;;;;;;;5093328;28;20171;-65
2022/01/16 07:23:21;;;;;;;70.28;34.58;;;;;;;;;;5092942;28;20172;-66
2022/01/16 07:25:47;;;;;;;72.07;32.00;;;;;;;;;;5092861;28;20213;-66
2022/01/16 07:28:13;;;;;;;72.03;32.75;;;;;;;;;;5092782;28;20164;-67
2022/01/16 07:30:40;;;;;;;83.43;33.63;;;;;;;;;;5093155;28;20230;-69
2022/01/16 07:33:07;;;;;;;70.25;34.40;;;;;;;;;;5093062;28;20201;-67
2022/01/16 07:35:33;;;;;;;69.03;31.98;;;;;;;;;;5092796;28;20254;-66
2022/01/16 07:37:59;;;;;;;68.57;33.33;;;;;;;;;;5091705;28;20179;-67
2022/01/16 07:40:25;;;;;;;72.20;32.93;;;;;;;;;;5093147;28;20216;-69
2022/01/16 07:42:52;;;;;;;62.38;29.65;;;;;;;;;;5093362;28;20408;-71
2022/01/16 07:45:18;;;;;;;60.13;29.45;;;;;;;;;;5093008;28;20293;-66
2022/01/16 07:47:44;;;;;;;62.78;31.67;;;;;;;;;;5093069;28;20171;-67
2022/01/16 07:50:11;;;;;;;60.90;31.55;;;;;;;;;;5093106;28;20203;-66
2022/01/16 07:52:37;;;;;;;65.68;33.85;;;;;;;;;;5095463;28;20160;-68
2022/01/16 07:55:03;;;;;;;63.70;32.53;;;;;;;;;;5096946;28;20270;-67
2022/01/16 07:57:29;;;;;;;69.55;33.13;;;;;;;;;;5096944;28;20447;-67
2022/01/16 07:59:55;;;;;;;69.95;32.80;;;;;;;;;;5096590;28;20160;-67
2022/01/16 08:02:21;;;;;;;64.27;32.03;;;;;;;;;;5096585;28;20220;-68
2022/01/16 08:04:47;;;;;;;60.75;31.17;;;;;;;;;;5096801;28;20426;-68
2022/01/16 08:07:13;;;;;;;66.00;31.77;;;;;;;;;;5096482;28;20535;-68
2022/01/16 08:09:39;;;;;;;64.50;31.60;;;;;;;;;;5096645;28;20575;-68
2022/01/16 08:12:06;;;;;;;58.28;30.10;;;;;;;;;;5096339;28;20246;-68
2022/01/16 08:14:32;;;;;;;65.53;32.83;;;;;;;;;;5096352;28;20175;-71
2022/01/16 08:16:58;;;;;;;165.95;94.68;;;;;;;;;;5096125;28;20218;-68
2022/01/16 08:19:24;;;;;;;56.92;28.67;;;;;;;;;;5096472;28;20179;-68
2022/01/16 08:21:51;;;;;;;59.13;28.98;;;;;;;;;;5096090;28;20171;-68
2022/01/16 08:24:17;;;;;;;53.88;27.83;;;;;;;;;;5096081;28;20175;-70
2022/01/16 08:26:43;;;;;;;51.55;27.52;;;;;;;;;;5096278;28;20213;-69
2022/01/16 08:29:10;;;;;;;53.13;27.92;;;;;;;;;;5096206;28;20547;-66
2022/01/16 08:31:36;;;;;;;54.05;28.88;;;;;;;;;;5095984;28;20163;-70
2022/01/16 08:34:02;;;;;;;55.10;28.77;;;;;;;;;;5095954;28;20168;-69
2022/01/16 08:36:28;;;;;;;69.00;36.13;;;;;;;;;;5095889;28;20216;-68
2022/01/16 08:38:55;;;;;;;75.10;41.95;;;;;;;;;;5095833;28;20167;-69
2022/01/16 08:41:24;;;;;;;70.57;39.25;;;;;;;;;;5095726;28;20163;-71
2022/01/16 08:43:51;;;;;;;73.38;40.72;;;;;;;;;;5095659;28;20167;-67
2022/01/16 08:46:17;;;;;;;82.47;43.80;;;;;;;;;;5095602;28;20155;-68
2022/01/16 08:48:43;;;;;;;61.05;33.55;;;;;;;;;;5095446;28;20195;-66
2022/01/16 08:51:09;;;;;;;51.78;28.23;;;;;;;;;;5094268;28;20603;-67
2022/01/16 08:53:35;;;;;;;47.50;27.38;;;;;;;;;;5095744;28;20167;-68
2022/01/16 08:56:01;;;;;;;50.97;26.58;;;;;;;;;;5095562;28;20203;-69
2022/01/16 08:58:27;;;;;;;39.83;24.05;;;;;;;;;;5095327;28;20187;-68
2022/01/16 09:00:53;;;;;;;42.67;24.25;;;;;;;;;;5095612;28;20522;-67
2022/01/16 09:03:20;;;;;;;48.37;27.30;;;;;;;;;;5094468;28;20179;-67
2022/01/16 09:05:46;;;;;;;42.15;25.30;;;;;;;;;;5093775;28;20427;-70
2022/01/16 09:08:13;;;;;;;41.80;26.35;;;;;;;;;;5095350;28;20519;-67
2022/01/16 09:10:41;;;;;;;43.75;27.38;;;;;;;;;;5095191;28;20535;-68
2022/01/16 09:13:08;;;;;;;38.92;24.85;;;;;;;;;;5094850;28;20534;-70
2022/01/16 09:15:34;;;;;;;37.75;23.27;;;;;;;;;;5094867;28;20159;-68
2022/01/16 09:18:00;;;;;;;36.78;24.70;;;;;;;;;;5094696;28;20223;-66
2022/01/16 09:20:26;;;;;;;37.67;24.50;;;;;;;;;;5094796;28;20167;-68
2022/01/16 09:22:52;;;;;;;70.00;45.40;;;;;;;;;;5094653;28;20758;-70
2022/01/16 09:25:20;;;;;;;40.37;25.90;;;;;;;;;;5094756;28;20385;-69
2022/01/16 09:27:46;;;;;;;39.57;27.30;;;;;;;;;;5094679;28;20371;-69
2022/01/16 09:30:12;;;;;;;44.60;28.20;;;;;;;;;;5094509;28;20464;-71
2022/01/16 09:32:39;;;;;;;41.83;26.80;;;;;;;;;;5094463;28;20409;-71
2022/01/16 09:35:05;;;;;;;37.90;27.20;;;;;;;;;;5094812;28;20399;-70
2022/01/16 09:37:32;;;;;;;41.63;28.90;;;;;;;;;;5094638;28;20428;-69
2022/01/16 09:39:59;;;;;;;42.57;28.13;;;;;;;;;;5094503;28;20437;-69
2022/01/16 09:42:26;;;;;;;39.83;27.43;;;;;;;;;;5094489;28;20741;-71
2022/01/16 09:44:52;;;;;;;34.90;26.97;;;;;;;;;;5094509;28;20402;-68
2022/01/16 09:47:18;;;;;;;35.17;28.03;;;;;;;;;;5094230;28;20973;-68
2022/01/16 09:49:44;;;;;;;34.23;26.60;;;;;;;;;;5094954;28;20552;-71
2022/01/16 09:52:10;;;;;;;38.57;27.20;;;;;;;;;;5094953;28;20408;-72
2022/01/16 09:54:40;;;;;;;45.67;34.63;;;;;;;;;;5094587;28;20410;-71
2022/01/16 09:57:06;;;;;;;34.43;27.00;;;;;;;;;;5094480;28;20402;-68
2022/01/16 09:59:33;;;;;;;33.93;25.77;;;;;;;;;;5094391;28;20433;-68
2022/01/16 10:01:59;;;;;;;32.67;25.63;;;;;;;;;;5094147;28;20400;-67
2022/01/16 10:04:38;;;;;;;33.03;24.20;;;;;;;;;;5094169;28;20832;-68
2022/01/16 10:07:06;;;;;;;31.53;24.30;;;;;;;;;;5094090;28;20476;-68
2022/01/16 10:09:34;;;;;;;32.53;23.70;;;;;;;;;;5093953;28;20499;-68
2022/01/16 10:12:03;;;;;;;31.93;23.30;;;;;;;;;;5094009;28;20485;-67
2022/01/16 10:14:30;;;;;;;29.47;21.00;;;;;;;;;;5093604;28;20429;-69
2022/01/16 10:16:56;;;;;;;30.00;21.03;;;;;;;;;;5093431;28;20461;-69
2022/01/16 10:19:24;;;;;;;31.77;22.70;;;;;;;;;;5093959;28;20452;-69
2022/01/16 10:21:50;;;;;;;34.80;21.90;;;;;;;;;;5093876;28;20391;-68
2022/01/16 10:24:29;;;;;;;26.70;20.30;;;;;;;;;;5093833;28;20389;-68
2022/01/16 10:27:08;;;;;;;28.20;20.63;;;;;;;;;;5093594;28;20420;-68
2022/01/16 10:29:44;;;;;;;30.60;20.87;;;;;;;;;;5092253;28;20853;-68
2022/01/16 10:32:11;;;;;;;26.27;20.13;;;;;;;;;;5093231;28;20895;-68
2022/01/16 10:34:37;;;;;;;28.90;20.80;;;;;;;;;;5093726;28;20836;-68
2022/01/16 10:37:17;;;;;;;26.23;20.40;;;;;;;;;;5092259;28;20432;-69
2022/01/16 10:39:52;;;;;;;25.93;19.70;;;;;;;;;;5093560;28;20926;-67
2022/01/16 10:42:18;;;;;;;26.80;21.53;;;;;;;;;;5093441;28;20404;-67
2022/01/16 10:44:44;;;;;;;24.50;20.00;;;;;;;;;;5093423;28;20463;-67
2022/01/16 10:47:24;;;;;;;30.10;22.77;;;;;;;;;;5093537;28;20430;-67
2022/01/16 10:50:01;;;;;;;33.20;23.07;;;;;;;;;;5093639;28;20468;-68
2022/01/16 10:52:27;;;;;;;31.80;20.37;;;;;;;;;;5093399;28;20429;-67
2022/01/16 10:54:53;;;;;;;27.23;20.57;;;;;;;;;;5093351;28;20899;-67
2022/01/16 10:57:19;;;;;;;26.57;20.70;;;;;;;;;;5093394;28;20492;-69
2022/01/16 10:59:45;;;;;;;26.60;19.60;;;;;;;;;;5093321;28;20484;-68
2022/01/16 11:02:12;;;;;;;27.53;19.80;;;;;;;;;;5093282;28;20500;-67
2022/01/16 11:04:38;;;;;;;24.87;20.70;;;;;;;;;;5093590;28;20402;-67
2022/01/16 11:07:07;;;;;;;24.20;19.33;;;;;;;;;;5092198;28;20417;-67
2022/01/16 11:09:34;;;;;;;25.90;18.80;;;;;;;;;;5093507;28;20502;-66
2022/01/16 11:12:00;;;;;;;25.23;18.53;;;;;;;;;;5093193;28;20428;-66
2022/01/16 11:14:27;;;;;;;24.07;19.17;;;;;;;;;;5093273;28;20402;-67
2022/01/16 11:16:54;;;;;;;29.20;21.03;;;;;;;;;;5093067;28;20522;-67
2022/01/16 11:19:23;;;;;;;26.97;17.60;;;;;;;;;;5093238;28;20402;-67
2022/01/16 11:21:53;;;;;;;27.77;18.63;;;;;;;;;;5093194;28;20396;-67
2022/01/16 11:24:36;;;;;;;22.60;16.80;;;;;;;;;;5093115;28;20397;-67
2022/01/16 11:27:02;;;;;;;26.43;18.70;;;;;;;;;;5093513;28;20450;-67
2022/01/16 11:29:29;;;;;;;23.63;17.63;;;;;;;;;;5097035;28;20556;-67
2022/01/16 11:31:56;;;;;;;23.57;18.33;;;;;;;;;;5097234;28;20761;-67
2022/01/16 11:34:22;;;;;;;22.80;17.90;;;;;;;;;;5097016;28;20401;-67
2022/01/16 11:36:48;;;;;;;21.67;17.50;;;;;;;;;;5097166;28;20408;-67
2022/01/16 11:39:14;;;;;;;24.70;18.20;;;;;;;;;;5096848;28;20408;-67
2022/01/16 11:41:53;;;;;;;25.47;17.57;;;;;;;;;;5096790;28;20401;-67
2022/01/16 11:44:28;;;;;;;25.70;17.57;;;;;;;;;;5096798;28;20432;-67
2022/01/16 11:46:57;;;;;;;24.90;17.57;;;;;;;;;;5096996;28;20869;-66
2022/01/16 11:49:37;;;;;;;21.30;15.80;;;;;;;;;;5096697;28;20929;-66
2022/01/16 11:52:13;;;;;;;23.00;16.17;;;;;;;;;;5096534;28;20401;-66
2022/01/16 11:54:43;;;;;;;25.73;15.93;;;;;;;;;;5096540;28;20945;-67
2022/01/16 11:57:23;;;;;;;23.40;16.20;;;;;;;;;;5096576;28;20398;-67
2022/01/16 12:00:07;;;;;;;27.23;16.93;;;;;;;;;;5096438;28;20389;-67
2022/01/16 12:02:37;;;;;;;23.07;17.00;;;;;;;;;;5096790;28;20450;-67
2022/01/16 12:05:04;;;;;;;21.67;16.80;;;;;;;;;;5096309;28;20389;-67
2022/01/16 12:07:35;;;;;;;22.00;17.43;;;;;;;;;;5096294;28;20787;-67
2022/01/16 12:10:02;;;;;;;23.17;17.17;;;;;;;;;;5096274;28;20611;-67
2022/01/16 12:12:28;;;;;;;20.13;16.40;;;;;;;;;;5096524;28;20407;-67
2022/01/16 12:15:01;;;;;;;24.33;18.43;;;;;;;;;;5096222;28;20896;-67
2022/01/16 12:17:33;;;;;;;22.50;16.33;;;;;;;;;;5096030;28;20552;-67
2022/01/16 12:19:59;;;;;;;22.53;18.00;;;;;;;;;;5095914;28;20401;-67
2022/01/16 12:22:43;;;;;;;21.97;17.00;;;;;;;;;;5096004;28;20400;-67
2022/01/16 12:25:20;;;;;;;22.20;17.73;;;;;;;;;;5096015;28;20482;-67
2022/01/16 12:27:46;;;;;;;24.20;17.73;;;;;;;;;;5096070;28;20411;-68
2022/01/16 12:30:15;;;;;;;19.10;16.10;;;;;;;;;;5095862;28;20476;-67
2022/01/16 12:32:55;;;;;;;22.00;17.57;;;;;;;;;;5096118;28;20411;-68
2022/01/16 12:35:58;;;;;;;20.07;17.20;;;;;;;;;;5095837;28;20434;-68
2022/01/16 12:38:26;;;;;;;21.17;17.67;;;;;;;;;;5032340;28;20792;-67
2022/01/16 12:41:11;;;;;;;23.73;18.77;;;;;;;;;;5084933;28;20518;-67
2022/01/16 12:43:48;;;;;;;21.87;17.23;;;;;;;;;;5095933;28;20410;-68
2022/01/16 12:46:19;;;;;;;26.17;17.90;;;;;;;;;;5095777;28;20509;-67
2022/01/16 12:48:46;;;;;;;21.40;16.77;;;;;;;;;;5094157;28;20454;-67
2022/01/16 12:51:15;;;;;;;17.77;15.60;;;;;;;;;;5095748;28;20523;-67
2022/01/16 12:53:48;;;;;;;21.43;17.63;;;;;;;;;;5095048;28;20402;-68
2022/01/16 12:56:17;;;;;;;24.97;18.60;;;;;;;;;;5095305;28;20886;-77
2022/01/16 12:58:43;;;;;;;23.60;18.30;;;;;;;;;;5095645;28;20551;-67
2022/01/16 13:01:09;;;;;;;22.57;17.83;;;;;;;;;;5095263;28;20915;-68
2022/01/16 13:03:35;;;;;;;23.40;16.83;;;;;;;;;;5095102;28;20402;-68
2022/01/16 13:06:13;;;;;;;19.87;16.30;;;;;;;;;;5095100;28;20880;-67
2022/01/16 13:08:52;;;;;;;21.80;17.60;;;;;;;;;;5095018;28;20493;-68
2022/01/16 13:11:18;;;;;;;21.10;16.70;;;;;;;;;;5093792;28;20418;-68
2022/01/16 13:13:44;;;;;;;22.00;17.20;;;;;;;;;;5095048;28;20422;-68
2022/01/16 13:16:19;;;;;;;23.40;17.27;;;;;;;;;;5095051;28;20409;-68
2022/01/16 13:18:58;;;;;;;20.37;16.67;;;;;;;;;;5095087;28;20925;-68
2022/01/16 13:21:32;;;;;;;24.93;17.53;;;;;;;;;;5094866;28;20969;-68
2022/01/16 13:23:58;;;;;;;24.50;17.57;;;;;;;;;;5093635;28;20425;-68
2022/01/16 13:26:25;;;;;;;26.63;17.57;;;;;;;;;;5095032;28;20542;-69
2022/01/16 13:28:59;;;;;;;24.23;18.57;;;;;;;;;;5093397;28;20422;-68
2022/01/16 13:31:26;;;;;;;21.77;18.03;;;;;;;;;;5094812;28;20406;-67
2022/01/16 13:34:08;;;;;;;22.83;17.00;;;;;;;;;;5094797;28;20405;-68
2022/01/16 13:36:34;;;;;;;27.13;19.30;;;;;;;;;;5094830;28;20524;-67
2022/01/16 13:39:00;;;;;;;25.50;19.13;;;;;;;;;;5094612;28;20428;-69
2022/01/16 13:41:26;;;;;;;38.17;24.93;;;;;;;;;;5094733;28;20488;-70
2022/01/16 13:43:52;;;;;;;25.70;18.50;;;;;;;;;;5093011;28;20538;-69
2022/01/16 13:46:18;;;;;;;23.97;17.77;;;;;;;;;;5094502;28;20409;-68
2022/01/16 13:48:44;;;;;;;27.83;18.50;;;;;;;;;;5093856;28;20413;-69
2022/01/16 13:51:10;;;;;;;24.63;19.60;;;;;;;;;;5094466;28;20409;-68
2022/01/16 13:53:40;;;;;;;27.13;19.90;;;;;;;;;;5094426;28;20496;-68
2022/01/16 13:56:15;;;;;;;25.83;18.40;;;;;;;;;;5094604;28;20811;-68
2022/01/16 13:58:48;;;;;;;30.57;21.40;;;;;;;;;;5094388;28;20398;-67
2022/01/16 14:01:18;;;;;;;32.03;22.70;;;;;;;;;;5094312;28;20917;-67
2022/01/16 14:03:47;;;;;;;30.40;22.23;;;;;;;;;;5094180;28;20492;-67
2022/01/16 14:06:16;;;;;;;31.03;22.97;;;;;;;;;;5094292;28;20919;-67
2022/01/16 14:08:47;;;;;;;33.10;22.50;;;;;;;;;;5094259;28;20401;-66
2022/01/16 14:11:14;;;;;;;30.03;21.37;;;;;;;;;;5094130;28;20496;-66
2022/01/16 14:14:06;;;;;;;26.80;20.20;;;;;;;;;;5094048;28;20394;-66
2022/01/16 14:19:35;;;;;;;29.23;22.40;;;;;;;;;;5093984;28;20412;-67
2022/01/16 14:22:10;;;;;;;28.90;20.37;;;;;;;;;;5092545;28;20425;-67
2022/01/16 14:24:37;;;;;;;28.67;20.83;;;;;;;;;;5093932;28;20401;-67
2022/01/16 14:27:10;;;;;;;32.63;21.63;;;;;;;;;;5093849;28;20433;-67
2022/01/16 14:29:37;;;;;;;28.33;21.30;;;;;;;;;;5093789;28;20460;-67
2022/01/16 14:32:04;;;;;;;27.80;20.07;;;;;;;;;;5094126;28;20508;-57
2022/01/16 14:34:30;;;;;;;29.93;21.03;;;;;;;;;;5093871;28;20777;-57
2022/01/16 14:36:56;;;;;;;30.60;21.37;;;;;;;;;;5093778;28;20401;-57
2022/01/16 14:39:23;;;;;;;28.13;20.80;;;;;;;;;;5093656;28;20393;-57
2022/01/16 14:41:51;;;;;;;30.73;22.43;;;;;;;;;;5093601;28;20482;-60
2022/01/16 14:44:20;;;;;;;30.47;21.93;;;;;;;;;;5093443;28;20791;-59
2022/01/16 14:46:46;;;;;;;31.10;21.83;;;;;;;;;;5093877;28;20405;-57
2022/01/16 14:49:12;;;;;;;30.80;22.10;;;;;;;;;;5093781;28;20457;-57
2022/01/16 14:51:38;;;;;;;31.23;22.27;;;;;;;;;;5093826;28;20405;-57
2022/01/16 14:54:05;;;;;;;34.53;23.73;;;;;;;;;;5093843;28;20429;-56
2022/01/16 14:56:32;;;;;;;36.20;24.83;;;;;;;;;;5093819;28;20409;-57
2022/01/16 14:58:58;;;;;;;33.93;23.60;;;;;;;;;;5093837;28;20412;-57
2022/01/16 15:01:24;;;;;;;31.83;22.50;;;;;;;;;;5094390;28;20397;-57
2022/01/16 15:03:50;;;;;;;35.40;23.23;;;;;;;;;;5097956;28;20405;-56
2022/01/16 15:06:16;;;;;;;34.30;23.07;;;;;;;;;;5097836;28;20405;-57
2022/01/16 15:08:44;;;;;;;41.37;25.63;;;;;;;;;;5097548;28;20811;-57
2022/01/16 15:11:11;;;;;;;44.67;26.47;;;;;;;;;;5097314;28;20484;-57
2022/01/16 15:13:37;;;;;;;39.43;26.33;;;;;;;;;;5097494;28;20537;-57